sensor_id;sensor_type;location;lat;lon;timestamp;pressure;altitude;pressure_sealevel;temperature;humidity
37291;BME280;23175;-33.706;151.094;2022-09-09T00:02:15;99573.41;;;12.47;58.48
37291;BME280;23175;-33.706;151.094;2022-09-09T00:04:54;99561.82;;;9.89;61.51
37291;BME280;23175;-33.706;151.094;2022-09-09T00:07:37;99549.70;;;14.31;54.23
37291;BME280;23175;-33.706;151.094;2022-09-09T00:10:28;99550.25;;;9.90;62.08
37291;BME280;23175;-33.706;151.094;2022-09-09T00:13:05;99545.71;;;11.11;59.88
37291;BME280;23175;-33.706;151.094;2022-09-09T00:15:47;99535.69;;;10.31;62.06
37291;BME280;23175;-33.706;151.094;2022-09-09T00:18:27;99533.55;;;10.56;62.19
37291;BME280;23175;-33.706;151.094;2022-09-09T00:21:01;99523.01;;;11.41;59.94
37291;BME280;23175;-33.706;151.094;2022-09-09T00:23:38;99526.35;;;11.66;59.45
37291;BME280;23175;-33.706;151.094;2022-09-09T00:26:16;99520.03;;;10.99;61.45
37291;BME280;23175;-33.706;151.094;2022-09-09T00:28:55;99505.79;;;10.80;62.78
37291;BME280;23175;-33.706;151.094;2022-09-09T00:31:30;99506.86;;;9.50;64.42
37291;BME280;23175;-33.706;151.094;2022-09-09T00:34:09;99518.51;;;11.33;62.89
37291;BME280;23175;-33.706;151.094;2022-09-09T00:36:42;99523.17;;;12.63;58.92
37291;BME280;23175;-33.706;151.094;2022-09-09T00:39:19;99520.86;;;11.56;61.11
37291;BME280;23175;-33.706;151.094;2022-09-09T00:42:02;99516.21;;;9.26;65.59
37291;BME280;23175;-33.706;151.094;2022-09-09T00:44:35;99501.87;;;12.15;60.82
37291;BME280;23175;-33.706;151.094;2022-09-09T00:47:15;99496.75;;;12.70;59.13
37291;BME280;23175;-33.706;151.094;2022-09-09T00:50:00;99505.49;;;10.23;62.47
37291;BME280;23175;-33.706;151.094;2022-09-09T00:52:39;99505.35;;;13.08;57.16
37291;BME280;23175;-33.706;151.094;2022-09-09T00:55:16;99498.98;;;12.95;58.18
37291;BME280;23175;-33.706;151.094;2022-09-09T00:57:50;99488.73;;;13.48;56.00
37291;BME280;23175;-33.706;151.094;2022-09-09T01:00:24;99496.25;;;12.99;57.72
37291;BME280;23175;-33.706;151.094;2022-09-09T01:03:02;99495.84;;;11.92;60.22
37291;BME280;23175;-33.706;151.094;2022-09-09T01:05:43;99482.27;;;9.90;62.43
37291;BME280;23175;-33.706;151.094;2022-09-09T01:08:27;99465.76;;;11.06;61.54
37291;BME280;23175;-33.706;151.094;2022-09-09T01:11:01;99466.90;;;9.40;64.55
37291;BME280;23175;-33.706;151.094;2022-09-09T01:13:33;99462.72;;;10.30;63.62
37291;BME280;23175;-33.706;151.094;2022-09-09T01:16:07;99451.92;;;10.67;63.98
37291;BME280;23175;-33.706;151.094;2022-09-09T01:18:43;99437.15;;;13.48;58.52
37291;BME280;23175;-33.706;151.094;2022-09-09T01:21:22;99423.37;;;12.85;56.75
37291;BME280;23175;-33.706;151.094;2022-09-09T01:24:16;99425.90;;;11.09;61.54
37291;BME280;23175;-33.706;151.094;2022-09-09T01:26:50;99414.11;;;13.38;55.60
37291;BME280;23175;-33.706;151.094;2022-09-09T01:29:22;99410.81;;;11.73;61.06
37291;BME280;23175;-33.706;151.094;2022-09-09T01:31:56;99405.78;;;11.73;59.10
37291;BME280;23175;-33.706;151.094;2022-09-09T01:34:29;99392.33;;;14.38;54.61
37291;BME280;23175;-33.706;151.094;2022-09-09T01:37:04;99398.45;;;12.38;57.23
37291;BME280;23175;-33.706;151.094;2022-09-09T01:39:37;99403.04;;;11.34;59.40
37291;BME280;23175;-33.706;151.094;2022-09-09T01:42:11;99403.04;;;11.91;58.12
37291;BME280;23175;-33.706;151.094;2022-09-09T01:44:42;99400.02;;;10.90;60.97
37291;BME280;23175;-33.706;151.094;2022-09-09T01:47:12;99401.96;;;11.70;60.47
37291;BME280;23175;-33.706;151.094;2022-09-09T01:49:42;99394.16;;;11.85;60.27
37291;BME280;23175;-33.706;151.094;2022-09-09T01:52:12;99389.23;;;11.74;59.36
37291;BME280;23175;-33.706;151.094;2022-09-09T01:54:43;99388.12;;;12.96;56.54
37291;BME280;23175;-33.706;151.094;2022-09-09T01:57:19;99386.41;;;12.08;57.70
37291;BME280;23175;-33.706;151.094;2022-09-09T02:00:00;99394.45;;;14.00;55.27
37291;BME280;23175;-33.706;151.094;2022-09-09T02:02:35;99389.11;;;11.80;58.12
37291;BME280;23175;-33.706;151.094;2022-09-09T02:05:14;99375.23;;;13.58;55.27
37291;BME280;23175;-33.706;151.094;2022-09-09T02:07:49;99373.30;;;13.37;53.39
37291;BME280;23175;-33.706;151.094;2022-09-09T02:10:22;99376.64;;;14.06;51.74
37291;BME280;23175;-33.706;151.094;2022-09-09T02:13:00;99380.10;;;13.92;53.15
37291;BME280;23175;-33.706;151.094;2022-09-09T02:15:34;99385.02;;;12.03;55.27
37291;BME280;23175;-33.706;151.094;2022-09-09T02:18:09;99376.76;;;11.38;57.12
37291;BME280;23175;-33.706;151.094;2022-09-09T02:20:42;99372.24;;;12.12;56.26
37291;BME280;23175;-33.706;151.094;2022-09-09T02:23:15;99364.50;;;12.37;54.26
37291;BME280;23175;-33.706;151.094;2022-09-09T02:25:48;99361.72;;;11.22;57.35
37291;BME280;23175;-33.706;151.094;2022-09-09T02:28:22;99357.47;;;13.12;54.71
37291;BME280;23175;-33.706;151.094;2022-09-09T02:30:54;99360.16;;;12.46;55.84
37291;BME280;23175;-33.706;151.094;2022-09-09T02:33:26;99352.46;;;15.24;51.90
37291;BME280;23175;-33.706;151.094;2022-09-09T02:35:58;99355.64;;;12.99;54.89
37291;BME280;23175;-33.706;151.094;2022-09-09T02:38:32;99359.66;;;11.80;54.45
37291;BME280;23175;-33.706;151.094;2022-09-09T02:41:04;99350.56;;;12.82;54.13
37291;BME280;23175;-33.706;151.094;2022-09-09T02:43:35;99349.72;;;12.84;56.08
37291;BME280;23175;-33.706;151.094;2022-09-09T02:46:13;99345.08;;;13.64;54.20
37291;BME280;23175;-33.706;151.094;2022-09-09T02:48:56;99345.38;;;11.64;54.20
37291;BME280;23175;-33.706;151.094;2022-09-09T02:51:35;99341.59;;;11.55;55.70
37291;BME280;23175;-33.706;151.094;2022-09-09T02:54:15;99339.88;;;11.56;56.07
37291;BME280;23175;-33.706;151.094;2022-09-09T02:56:49;99339.28;;;12.48;52.88
37291;BME280;23175;-33.706;151.094;2022-09-09T02:59:22;99334.60;;;13.43;53.59
37291;BME280;23175;-33.706;151.094;2022-09-09T03:01:52;99338.11;;;12.30;54.37
37291;BME280;23175;-33.706;151.094;2022-09-09T03:04:22;99331.97;;;11.85;54.70
37291;BME280;23175;-33.706;151.094;2022-09-09T03:06:52;99327.92;;;11.66;54.92
37291;BME280;23175;-33.706;151.094;2022-09-09T03:09:22;99326.10;;;12.61;53.79
37291;BME280;23175;-33.706;151.094;2022-09-09T03:11:52;99320.05;;;14.07;51.57
37291;BME280;23175;-33.706;151.094;2022-09-09T03:14:23;99325.46;;;12.77;53.94
37291;BME280;23175;-33.706;151.094;2022-09-09T03:16:54;99314.17;;;11.97;54.13
37291;BME280;23175;-33.706;151.094;2022-09-09T03:19:24;99312.00;;;13.47;52.13
37291;BME280;23175;-33.706;151.094;2022-09-09T03:21:55;99314.60;;;12.43;53.66
37291;BME280;23175;-33.706;151.094;2022-09-09T03:24:25;99310.28;;;12.36;53.79
37291;BME280;23175;-33.706;151.094;2022-09-09T03:26:56;99306.64;;;13.74;52.77
37291;BME280;23175;-33.706;151.094;2022-09-09T03:29:26;99299.89;;;13.93;51.64
37291;BME280;23175;-33.706;151.094;2022-09-09T03:31:56;99302.40;;;14.23;49.40
37291;BME280;23175;-33.706;151.094;2022-09-09T03:34:26;99299.69;;;13.46;52.14
37291;BME280;23175;-33.706;151.094;2022-09-09T03:36:56;99295.15;;;14.61;48.30
37291;BME280;23175;-33.706;151.094;2022-09-09T03:39:26;99289.12;;;14.46;48.77
37291;BME280;23175;-33.706;151.094;2022-09-09T03:41:56;99290.60;;;14.85;49.82
37291;BME280;23175;-33.706;151.094;2022-09-09T03:44:27;99288.17;;;12.68;52.81
37291;BME280;23175;-33.706;151.094;2022-09-09T03:46:57;99286.23;;;12.20;52.80
37291;BME280;23175;-33.706;151.094;2022-09-09T03:49:27;99288.73;;;14.43;49.93
37291;BME280;23175;-33.706;151.094;2022-09-09T03:51:57;99283.07;;;12.81;52.38
37291;BME280;23175;-33.706;151.094;2022-09-09T03:54:27;99271.61;;;13.41;51.80
37291;BME280;23175;-33.706;151.094;2022-09-09T03:56:57;99273.90;;;12.94;53.15
37291;BME280;23175;-33.706;151.094;2022-09-09T03:59:27;99273.22;;;14.73;49.26
37291;BME280;23175;-33.706;151.094;2022-09-09T04:01:58;99268.08;;;13.60;51.42
37291;BME280;23175;-33.706;151.094;2022-09-09T04:04:28;99264.32;;;13.38;51.57
37291;BME280;23175;-33.706;151.094;2022-09-09T04:06:58;99263.37;;;11.90;53.24
37291;BME280;23175;-33.706;151.094;2022-09-09T04:09:28;99264.79;;;15.76;49.66
37291;BME280;23175;-33.706;151.094;2022-09-09T04:11:58;99259.25;;;12.10;53.65
37291;BME280;23175;-33.706;151.094;2022-09-09T04:14:28;99261.22;;;13.90;51.64
37291;BME280;23175;-33.706;151.094;2022-09-09T04:16:59;99259.16;;;14.44;50.36
37291;BME280;23175;-33.706;151.094;2022-09-09T04:19:29;99256.94;;;14.25;49.70
37291;BME280;23175;-33.706;151.094;2022-09-09T04:21:59;99252.70;;;13.80;49.17
37291;BME280;23175;-33.706;151.094;2022-09-09T04:24:29;99249.75;;;15.58;47.98
37291;BME280;23175;-33.706;151.094;2022-09-09T04:26:59;99244.82;;;15.97;46.06
37291;BME280;23175;-33.706;151.094;2022-09-09T04:29:29;99246.01;;;15.31;46.98
37291;BME280;23175;-33.706;151.094;2022-09-09T04:32:00;99242.32;;;15.13;47.15
37291;BME280;23175;-33.706;151.094;2022-09-09T04:34:30;99246.64;;;13.97;48.41
37291;BME280;23175;-33.706;151.094;2022-09-09T04:37:00;99247.29;;;13.99;48.87
37291;BME280;23175;-33.706;151.094;2022-09-09T04:39:30;99243.76;;;13.94;46.59
37291;BME280;23175;-33.706;151.094;2022-09-09T04:42:00;99242.27;;;15.54;45.42
37291;BME280;23175;-33.706;151.094;2022-09-09T04:44:30;99235.29;;;16.55;42.88
37291;BME280;23175;-33.706;151.094;2022-09-09T04:47:01;99241.87;;;14.48;45.10
37291;BME280;23175;-33.706;151.094;2022-09-09T04:49:31;99234.45;;;15.02;44.83
37291;BME280;23175;-33.706;151.094;2022-09-09T04:52:01;99231.02;;;16.55;43.72
37291;BME280;23175;-33.706;151.094;2022-09-09T04:54:31;99224.38;;;16.95;41.40
37291;BME280;23175;-33.706;151.094;2022-09-09T04:57:01;99233.38;;;13.67;47.44
37291;BME280;23175;-33.706;151.094;2022-09-09T04:59:31;99227.00;;;15.32;45.42
37291;BME280;23175;-33.706;151.094;2022-09-09T05:02:01;99225.72;;;13.40;46.99
37291;BME280;23175;-33.706;151.094;2022-09-09T05:04:31;99216.59;;;15.82;43.86
37291;BME280;23175;-33.706;151.094;2022-09-09T05:07:02;99220.77;;;14.02;47.34
37291;BME280;23175;-33.706;151.094;2022-09-09T05:09:32;99216.89;;;14.53;44.58
37291;BME280;23175;-33.706;151.094;2022-09-09T05:12:02;99217.75;;;14.28;45.43
37291;BME280;23175;-33.706;151.094;2022-09-09T05:14:32;99213.11;;;14.25;45.16
37291;BME280;23175;-33.706;151.094;2022-09-09T05:17:02;99203.55;;;14.67;44.68
37291;BME280;23175;-33.706;151.094;2022-09-09T05:19:32;99212.06;;;14.58;43.66
37291;BME280;23175;-33.706;151.094;2022-09-09T05:22:02;99212.87;;;15.31;42.48
37291;BME280;23175;-33.706;151.094;2022-09-09T05:24:32;99217.87;;;15.97;41.72
37291;BME280;23175;-33.706;151.094;2022-09-09T05:27:03;99224.46;;;14.61;44.05
37291;BME280;23175;-33.706;151.094;2022-09-09T05:29:33;99219.21;;;15.20;42.52
37291;BME280;23175;-33.706;151.094;2022-09-09T05:32:03;99223.87;;;13.79;45.32
37291;BME280;23175;-33.706;151.094;2022-09-09T05:34:34;99218.83;;;15.32;42.63
37291;BME280;23175;-33.706;151.094;2022-09-09T05:37:04;99215.30;;;14.60;42.92
37291;BME280;23175;-33.706;151.094;2022-09-09T05:39:49;99211.21;;;16.71;41.25
37291;BME280;23175;-33.706;151.094;2022-09-09T05:42:19;99208.57;;;16.24;41.76
37291;BME280;23175;-33.706;151.094;2022-09-09T05:44:49;99207.89;;;15.96;41.27
37291;BME280;23175;-33.706;151.094;2022-09-09T05:47:19;99209.33;;;17.29;40.60
37291;BME280;23175;-33.706;151.094;2022-09-09T05:49:49;99210.42;;;14.33;43.67
37291;BME280;23175;-33.706;151.094;2022-09-09T05:52:19;99212.18;;;14.48;44.12
37291;BME280;23175;-33.706;151.094;2022-09-09T05:54:50;99210.75;;;14.27;45.15
37291;BME280;23175;-33.706;151.094;2022-09-09T05:57:20;99213.28;;;13.98;43.02
37291;BME280;23175;-33.706;151.094;2022-09-09T05:59:50;99214.31;;;16.81;40.08
37291;BME280;23175;-33.706;151.094;2022-09-09T06:02:20;99211.90;;;14.87;41.95
37291;BME280;23175;-33.706;151.094;2022-09-09T06:04:50;99219.79;;;14.23;42.19
37291;BME280;23175;-33.706;151.094;2022-09-09T06:07:20;99217.44;;;14.74;40.99
37291;BME280;23175;-33.706;151.094;2022-09-09T06:09:51;99217.02;;;15.90;39.11
37291;BME280;23175;-33.706;151.094;2022-09-09T06:12:21;99225.32;;;13.68;41.75
37291;BME280;23175;-33.706;151.094;2022-09-09T06:14:51;99228.24;;;14.44;40.32
37291;BME280;23175;-33.706;151.094;2022-09-09T06:17:21;99227.20;;;14.46;39.91
37291;BME280;23175;-33.706;151.094;2022-09-09T06:19:52;99222.86;;;15.65;39.61
37291;BME280;23175;-33.706;151.094;2022-09-09T06:22:22;99220.29;;;16.89;37.06
37291;BME280;23175;-33.706;151.094;2022-09-09T06:24:52;99224.20;;;14.77;39.00
37291;BME280;23175;-33.706;151.094;2022-09-09T06:27:23;99226.61;;;15.05;38.96
37291;BME280;23175;-33.706;151.094;2022-09-09T06:29:53;99228.95;;;14.74;39.75
37291;BME280;23175;-33.706;151.094;2022-09-09T06:32:23;99232.61;;;16.05;37.21
37291;BME280;23175;-33.706;151.094;2022-09-09T06:34:54;99238.36;;;17.08;36.13
37291;BME280;23175;-33.706;151.094;2022-09-09T06:37:24;99241.17;;;14.65;38.70
37291;BME280;23175;-33.706;151.094;2022-09-09T06:39:54;99246.52;;;14.87;38.53
37291;BME280;23175;-33.706;151.094;2022-09-09T06:42:25;99248.00;;;14.01;40.11
37291;BME280;23175;-33.706;151.094;2022-09-09T06:44:56;99243.06;;;17.10;37.05
37291;BME280;23175;-33.706;151.094;2022-09-09T06:47:26;99241.20;;;18.06;36.63
37291;BME280;23175;-33.706;151.094;2022-09-09T06:49:58;99244.04;;;15.94;38.76
37291;BME280;23175;-33.706;151.094;2022-09-09T06:52:28;99250.16;;;15.06;39.36
37291;BME280;23175;-33.706;151.094;2022-09-09T06:54:58;99251.15;;;15.80;37.88
37291;BME280;23175;-33.706;151.094;2022-09-09T06:57:28;99252.90;;;16.18;38.06
37291;BME280;23175;-33.706;151.094;2022-09-09T06:59:59;99256.03;;;17.86;36.02
37291;BME280;23175;-33.706;151.094;2022-09-09T07:02:31;99258.60;;;17.92;36.94
37291;BME280;23175;-33.706;151.094;2022-09-09T07:05:01;99255.81;;;16.79;37.65
37291;BME280;23175;-33.706;151.094;2022-09-09T07:07:31;99253.64;;;15.96;38.02
37291;BME280;23175;-33.706;151.094;2022-09-09T07:10:02;99256.29;;;17.42;36.42
37291;BME280;23175;-33.706;151.094;2022-09-09T07:12:32;99258.75;;;17.85;38.31
37291;BME280;23175;-33.706;151.094;2022-09-09T07:15:02;99260.73;;;19.70;36.01
37291;BME280;23175;-33.706;151.094;2022-09-09T07:17:32;99262.34;;;19.18;36.51
37291;BME280;23175;-33.706;151.094;2022-09-09T07:20:02;99263.89;;;18.62;37.22
37291;BME280;23175;-33.706;151.094;2022-09-09T07:22:33;99265.98;;;19.86;36.53
37291;BME280;23175;-33.706;151.094;2022-09-09T07:25:03;99265.51;;;17.25;40.21
37291;BME280;23175;-33.706;151.094;2022-09-09T07:27:34;99265.70;;;18.27;39.77
37291;BME280;23175;-33.706;151.094;2022-09-09T07:30:05;99270.24;;;15.73;43.16
37291;BME280;23175;-33.706;151.094;2022-09-09T07:32:35;99269.17;;;16.75;41.51
37291;BME280;23175;-33.706;151.094;2022-09-09T07:35:06;99267.75;;;17.06;40.14
37291;BME280;23175;-33.706;151.094;2022-09-09T07:37:39;99273.65;;;15.23;42.92
37291;BME280;23175;-33.706;151.094;2022-09-09T07:40:10;99275.65;;;15.34;42.59
37291;BME280;23175;-33.706;151.094;2022-09-09T07:42:41;99283.75;;;12.34;46.99
37291;BME280;23175;-33.706;151.094;2022-09-09T07:45:12;99285.79;;;14.94;44.46
37291;BME280;23175;-33.706;151.094;2022-09-09T07:47:43;99295.53;;;15.60;43.81
37291;BME280;23175;-33.706;151.094;2022-09-09T07:50:13;99296.39;;;14.44;44.82
37291;BME280;23175;-33.706;151.094;2022-09-09T07:52:43;99298.75;;;14.99;44.86
37291;BME280;23175;-33.706;151.094;2022-09-09T07:55:13;99299.10;;;14.87;44.80
37291;BME280;23175;-33.706;151.094;2022-09-09T07:57:43;99297.57;;;16.67;42.46
37291;BME280;23175;-33.706;151.094;2022-09-09T08:00:14;99312.18;;;16.83;41.18
37291;BME280;23175;-33.706;151.094;2022-09-09T08:02:44;99317.52;;;13.31;46.51
37291;BME280;23175;-33.706;151.094;2022-09-09T08:05:15;99304.23;;;13.46;45.79
37291;BME280;23175;-33.706;151.094;2022-09-09T08:07:45;99304.29;;;14.76;45.11
37291;BME280;23175;-33.706;151.094;2022-09-09T08:10:15;99310.92;;;15.78;43.33
37291;BME280;23175;-33.706;151.094;2022-09-09T08:12:45;99313.63;;;15.44;44.44
37291;BME280;23175;-33.706;151.094;2022-09-09T08:15:15;99319.85;;;15.34;45.04
37291;BME280;23175;-33.706;151.094;2022-09-09T08:17:45;99322.01;;;16.64;42.58
37291;BME280;23175;-33.706;151.094;2022-09-09T08:20:16;99326.64;;;15.49;44.56
37291;BME280;23175;-33.706;151.094;2022-09-09T08:22:46;99318.08;;;15.69;43.09
37291;BME280;23175;-33.706;151.094;2022-09-09T08:25:16;99317.13;;;12.98;47.07
37291;BME280;23175;-33.706;151.094;2022-09-09T08:27:46;99320.18;;;15.27;43.17
37291;BME280;23175;-33.706;151.094;2022-09-09T08:30:17;99318.20;;;16.29;41.93
37291;BME280;23175;-33.706;151.094;2022-09-09T08:32:49;99321.93;;;16.02;40.34
37291;BME280;23175;-33.706;151.094;2022-09-09T08:35:19;99321.33;;;16.29;41.43
37291;BME280;23175;-33.706;151.094;2022-09-09T08:37:53;99321.44;;;17.23;40.11
37291;BME280;23175;-33.706;151.094;2022-09-09T08:40:30;99317.61;;;15.09;43.71
37291;BME280;23175;-33.706;151.094;2022-09-09T08:43:06;99311.78;;;17.04;40.55
37291;BME280;23175;-33.706;151.094;2022-09-09T08:45:42;99314.50;;;16.69;40.13
37291;BME280;23175;-33.706;151.094;2022-09-09T08:48:33;99320.67;;;16.68;41.67
37291;BME280;23175;-33.706;151.094;2022-09-09T08:51:08;99323.60;;;17.35;40.09
37291;BME280;23175;-33.706;151.094;2022-09-09T08:53:42;99331.39;;;17.84;39.25
37291;BME280;23175;-33.706;151.094;2022-09-09T08:56:16;99339.19;;;18.07;39.16
37291;BME280;23175;-33.706;151.094;2022-09-09T08:58:49;99345.80;;;17.37;39.48
37291;BME280;23175;-33.706;151.094;2022-09-09T09:01:31;99351.54;;;18.01;39.09
37291;BME280;23175;-33.706;151.094;2022-09-09T09:04:10;99353.17;;;15.50;42.96
37291;BME280;23175;-33.706;151.094;2022-09-09T09:06:50;99366.52;;;15.60;42.87
37291;BME280;23175;-33.706;151.094;2022-09-09T09:09:31;99373.41;;;15.35;43.13
37291;BME280;23175;-33.706;151.094;2022-09-09T09:12:12;99370.59;;;16.55;42.09
37291;BME280;23175;-33.706;151.094;2022-09-09T09:14:45;99372.88;;;15.78;43.18
37291;BME280;23175;-33.706;151.094;2022-09-09T09:17:17;99380.74;;;16.71;42.23
37291;BME280;23175;-33.706;151.094;2022-09-09T09:19:49;99381.39;;;17.38;40.86
37291;BME280;23175;-33.706;151.094;2022-09-09T09:22:21;99382.26;;;15.71;42.74
37291;BME280;23175;-33.706;151.094;2022-09-09T09:24:54;99381.08;;;14.46;44.18
37291;BME280;23175;-33.706;151.094;2022-09-09T09:27:32;99379.94;;;14.02;44.66
37291;BME280;23175;-33.706;151.094;2022-09-09T09:30:12;99378.17;;;15.45;42.05
37291;BME280;23175;-33.706;151.094;2022-09-09T09:32:49;99376.10;;;16.62;40.10
37291;BME280;23175;-33.706;151.094;2022-09-09T09:35:23;99382.66;;;16.23;41.20
37291;BME280;23175;-33.706;151.094;2022-09-09T09:37:54;99391.33;;;15.87;41.98
37291;BME280;23175;-33.706;151.094;2022-09-09T09:40:24;99392.32;;;13.88;44.79
37291;BME280;23175;-33.706;151.094;2022-09-09T09:42:57;99393.53;;;15.62;41.39
37291;BME280;23175;-33.706;151.094;2022-09-09T09:45:32;99395.64;;;15.63;41.56
37291;BME280;23175;-33.706;151.094;2022-09-09T09:48:05;99396.45;;;14.99;42.65
37291;BME280;23175;-33.706;151.094;2022-09-09T09:50:39;99395.80;;;16.00;39.92
37291;BME280;23175;-33.706;151.094;2022-09-09T09:53:23;99392.60;;;16.25;39.51
37291;BME280;23175;-33.706;151.094;2022-09-09T09:55:57;99396.43;;;10.77;46.11
37291;BME280;23175;-33.706;151.094;2022-09-09T09:58:31;99398.66;;;10.93;47.40
37291;BME280;23175;-33.706;151.094;2022-09-09T10:01:02;99398.15;;;14.98;41.79
37291;BME280;23175;-33.706;151.094;2022-09-09T10:03:33;99398.31;;;15.04;42.66
37291;BME280;23175;-33.706;151.094;2022-09-09T10:06:05;99395.50;;;16.08;41.14
37291;BME280;23175;-33.706;151.094;2022-09-09T10:08:46;99395.04;;;14.90;42.45
37291;BME280;23175;-33.706;151.094;2022-09-09T10:15:40;99397.81;;;15.08;41.22
37291;BME280;23175;-33.706;151.094;2022-09-09T10:18:29;99403.16;;;15.69;40.18
37291;BME280;23175;-33.706;151.094;2022-09-09T10:21:15;99404.79;;;13.94;43.00
37291;BME280;23175;-33.706;151.094;2022-09-09T10:24:09;99403.25;;;14.47;41.92
37291;BME280;23175;-33.706;151.094;2022-09-09T10:26:50;99406.28;;;15.64;40.87
37291;BME280;23175;-33.706;151.094;2022-09-09T10:29:36;99403.99;;;14.40;42.72
37291;BME280;23175;-33.706;151.094;2022-09-09T10:32:29;99402.23;;;15.39;41.15
37291;BME280;23175;-33.706;151.094;2022-09-09T10:35:09;99402.11;;;14.70;41.08
37291;BME280;23175;-33.706;151.094;2022-09-09T10:37:54;99405.20;;;15.63;39.74
37291;BME280;23175;-33.706;151.094;2022-09-09T10:40:34;99405.79;;;16.07;38.99
37291;BME280;23175;-33.706;151.094;2022-09-09T10:43:17;99402.98;;;16.28;39.42
37291;BME280;23175;-33.706;151.094;2022-09-09T10:45:58;99402.49;;;15.41;39.99
37291;BME280;23175;-33.706;151.094;2022-09-09T10:48:42;99400.04;;;16.12;39.46
37291;BME280;23175;-33.706;151.094;2022-09-09T10:51:25;99398.50;;;15.30;40.90
37291;BME280;23175;-33.706;151.094;2022-09-09T10:54:20;99396.58;;;14.21;41.80
37291;BME280;23175;-33.706;151.094;2022-09-09T10:56:58;99396.44;;;12.95;43.31
37291;BME280;23175;-33.706;151.094;2022-09-09T10:59:34;99396.84;;;15.14;40.90
37291;BME280;23175;-33.706;151.094;2022-09-09T11:02:16;99396.15;;;16.10;39.59
37291;BME280;23175;-33.706;151.094;2022-09-09T11:04:53;99395.42;;;15.76;39.79
37291;BME280;23175;-33.706;151.094;2022-09-09T11:07:28;99397.64;;;11.02;45.59
37291;BME280;23175;-33.706;151.094;2022-09-09T11:10:04;99395.64;;;15.15;41.52
37291;BME280;23175;-33.706;151.094;2022-09-09T11:12:38;99397.34;;;14.33;42.60
37291;BME280;23175;-33.706;151.094;2022-09-09T11:15:18;99411.61;;;14.62;41.28
37291;BME280;23175;-33.706;151.094;2022-09-09T11:17:53;99411.90;;;11.37;44.31
37291;BME280;23175;-33.706;151.094;2022-09-09T11:20:27;99417.19;;;12.01;44.90
37291;BME280;23175;-33.706;151.094;2022-09-09T11:23:02;99423.46;;;12.85;44.61
37291;BME280;23175;-33.706;151.094;2022-09-09T11:25:36;99416.47;;;13.78;43.21
37291;BME280;23175;-33.706;151.094;2022-09-09T11:28:30;99417.99;;;13.99;42.45
37291;BME280;23175;-33.706;151.094;2022-09-09T11:31:14;99422.44;;;10.40;47.06
37291;BME280;23175;-33.706;151.094;2022-09-09T11:34:18;99423.58;;;13.53;44.15
37291;BME280;23175;-33.706;151.094;2022-09-09T11:37:02;99421.29;;;10.71;47.31
37291;BME280;23175;-33.706;151.094;2022-09-09T11:40:17;99413.74;;;14.31;42.49
37291;BME280;23175;-33.706;151.094;2022-09-09T11:42:49;99413.98;;;12.80;43.23
37291;BME280;23175;-33.706;151.094;2022-09-09T11:45:30;99415.97;;;11.77;46.38
37291;BME280;23175;-33.706;151.094;2022-09-09T11:48:02;99418.02;;;11.89;45.95
37291;BME280;23175;-33.706;151.094;2022-09-09T11:50:36;99412.65;;;13.35;43.56
37291;BME280;23175;-33.706;151.094;2022-09-09T11:53:28;99415.62;;;14.36;43.55
37291;BME280;23175;-33.706;151.094;2022-09-09T11:56:09;99408.39;;;15.59;40.60
37291;BME280;23175;-33.706;151.094;2022-09-09T11:58:44;99397.06;;;14.38;42.16
37291;BME280;23175;-33.706;151.094;2022-09-09T12:01:33;99392.27;;;15.39;40.93
37291;BME280;23175;-33.706;151.094;2022-09-09T12:04:26;99386.71;;;15.27;40.90
37291;BME280;23175;-33.706;151.094;2022-09-09T12:06:59;99380.98;;;16.20;39.63
37291;BME280;23175;-33.706;151.094;2022-09-09T12:09:37;99379.62;;;16.07;39.54
37291;BME280;23175;-33.706;151.094;2022-09-09T12:12:31;99385.69;;;11.57;44.53
37291;BME280;23175;-33.706;151.094;2022-09-09T12:15:20;99395.55;;;12.08;44.11
37291;BME280;23175;-33.706;151.094;2022-09-09T12:17:52;99394.64;;;11.74;43.61
37291;BME280;23175;-33.706;151.094;2022-09-09T12:20:26;99387.90;;;12.53;44.24
37291;BME280;23175;-33.706;151.094;2022-09-09T12:23:15;99382.65;;;11.71;45.41
37291;BME280;23175;-33.706;151.094;2022-09-09T12:26:01;99387.37;;;12.78;42.91
37291;BME280;23175;-33.706;151.094;2022-09-09T12:28:47;99388.35;;;14.94;40.54
37291;BME280;23175;-33.706;151.094;2022-09-09T12:31:24;99389.43;;;14.28;40.70
37291;BME280;23175;-33.706;151.094;2022-09-09T12:34:02;99385.97;;;13.79;41.72
37291;BME280;23175;-33.706;151.094;2022-09-09T12:36:34;99379.63;;;13.95;41.59
37291;BME280;23175;-33.706;151.094;2022-09-09T12:39:17;99379.47;;;15.47;39.90
37291;BME280;23175;-33.706;151.094;2022-09-09T12:42:14;99375.33;;;12.90;41.92
37291;BME280;23175;-33.706;151.094;2022-09-09T12:44:54;99380.29;;;12.76;43.28
37291;BME280;23175;-33.706;151.094;2022-09-09T12:47:31;99386.05;;;14.46;40.70
37291;BME280;23175;-33.706;151.094;2022-09-09T12:50:05;99394.76;;;11.63;45.42
37291;BME280;23175;-33.706;151.094;2022-09-09T12:52:45;99393.58;;;12.97;42.63
37291;BME280;23175;-33.706;151.094;2022-09-09T12:55:23;99397.92;;;12.52;43.82
37291;BME280;23175;-33.706;151.094;2022-09-09T12:57:55;99398.23;;;11.21;44.72
37291;BME280;23175;-33.706;151.094;2022-09-09T13:00:28;99399.93;;;14.21;42.50
37291;BME280;23175;-33.706;151.094;2022-09-09T13:03:01;99407.32;;;13.03;44.50
37291;BME280;23175;-33.706;151.094;2022-09-09T13:05:37;99406.23;;;11.31;46.37
37291;BME280;23175;-33.706;151.094;2022-09-09T13:08:09;99405.74;;;10.87;47.87
37291;BME280;23175;-33.706;151.094;2022-09-09T13:10:43;99398.35;;;12.27;46.71
37291;BME280;23175;-33.706;151.094;2022-09-09T13:13:18;99400.25;;;12.23;46.73